N40099 KHWO-
Flight info
| Callsign | N40099 |
|---|---|
| Flight time | N/A |
| Altitude | VFR/005 |
| Route | VFR FLL TRANSITION |
| Aircraft | TAYB/L-DOV/C |
Departure
| Time | 2026-04-12 20:03 |
|---|---|
| Airport | North Perry Airport (KHWO) |
Arrival
| Time | N/A |
|---|---|
| Airport | - |
| Time | Latitude | Longitude | Altitude | Speed | Heading |
|---|---|---|---|---|---|
| 2026-04-12 19:57 | 25.99738 | -80.24057 | 7 ft | 0 kts | 18° |
| 2026-04-12 19:58 | 25.99738 | -80.24056 | 7 ft | 0 kts | 18° |
| 2026-04-12 19:58 | 25.99762 | -80.24073 | 7 ft | 8 kts | 279° |
| 2026-04-12 19:58 | 25.99762 | -80.24133 | 7 ft | 12 kts | 266° |
| 2026-04-12 19:59 | 25.99760 | -80.24226 | 7 ft | 17 kts | 263° |
| 2026-04-12 19:59 | 25.99758 | -80.24297 | 7 ft | 17 kts | 274° |
| 2026-04-12 19:59 | 25.99770 | -80.24328 | 7 ft | 0 kts | 69° |
| 2026-04-12 20:00 | 25.99772 | -80.24324 | 7 ft | 3 kts | 35° |
| 2026-04-12 20:00 | 25.99791 | -80.24322 | 7 ft | 9 kts | 358° |
| 2026-04-12 20:00 | 25.99799 | -80.24319 | 7 ft | 5 kts | 264° |
| 2026-04-12 20:00 | 25.99822 | -80.24324 | 7 ft | 5 kts | 65° |
| 2026-04-12 20:01 | 25.99827 | -80.24273 | 7 ft | 26 kts | 94° |
| 2026-04-12 20:01 | 25.99816 | -80.24103 | 96 ft | 40 kts | 89° |
| 2026-04-12 20:01 | 25.99804 | -80.23941 | 243 ft | 39 kts | 85° |
| 2026-04-12 20:02 | 25.99814 | -80.23795 | 359 ft | 39 kts | 82° |
| 2026-04-12 20:02 | 25.99844 | -80.23595 | 474 ft | 46 kts | 76° |
| 2026-04-12 20:03 | 25.99816 | -80.23377 | 623 ft | 52 kts | 113° |
| 2026-04-12 20:03 | 25.99559 | -80.23249 | 719 ft | 77 kts | 162° |
| 2026-04-12 20:03 | 25.99199 | -80.23322 | 843 ft | 88 kts | 193° |
| 2026-04-12 20:03 | 25.98980 | -80.23695 | 922 ft | 100 kts | 263° |
| 2026-04-12 20:04 | 25.98926 | -80.24225 | 977 ft | 104 kts | 267° |
| 2026-04-12 20:04 | 25.98876 | -80.24760 | 969 ft | 110 kts | 269° |
| 2026-04-12 20:04 | 25.98881 | -80.25333 | 914 ft | 91 kts | 309° |
| 2026-04-12 20:04 | 25.99207 | -80.25531 | 729 ft | 80 kts | 1° |
| 2026-04-12 20:05 | 25.99515 | -80.25566 | 649 ft | 68 kts | 19° |
| 2026-04-12 20:05 | 25.99816 | -80.25500 | 502 ft | 65 kts | 31° |
| 2026-04-12 20:05 | 25.99992 | -80.25314 | 418 ft | 54 kts | 81° |
| 2026-04-12 20:05 | 26.00010 | -80.25060 | 317 ft | 54 kts | 83° |
| 2026-04-12 20:06 | 26.00017 | -80.24803 | 212 ft | 56 kts | 83° |
| 2026-04-12 20:06 | 26.00033 | -80.24509 | 133 ft | 52 kts | 82° |
| 2026-04-12 20:06 | 26.00048 | -80.24232 | 57 ft | 48 kts | 92° |
| 2026-04-12 20:06 | 26.00017 | -80.24033 | 289 ft | 24 kts | 88° |
| 2026-04-12 20:07 | 25.99998 | -80.23874 | 399 ft | 36 kts | 84° |
| 2026-04-12 20:07 | 25.99978 | -80.23689 | 540 ft | 38 kts | 81° |
| 2026-04-12 20:07 | 25.99973 | -80.23480 | 698 ft | 40 kts | 75° |
| 2026-04-12 20:07 | 25.99975 | -80.23252 | 772 ft | 53 kts | 78° |
| 2026-04-12 20:08 | 25.99987 | -80.22994 | 788 ft | 66 kts | 77° |
| 2026-04-12 20:08 | 26.00008 | -80.22786 | 854 ft | 66 kts | 75° |
| 2026-04-12 20:08 | 26.00027 | -80.22532 | 881 ft | 72 kts | 76° |
| 2026-04-12 20:08 | 26.00069 | -80.22187 | 913 ft | 78 kts | 75° |
| 2026-04-12 20:09 | 26.00107 | -80.21912 | 896 ft | 82 kts | 73° |
| 2026-04-12 20:09 | 26.00139 | -80.21680 | 928 ft | 82 kts | 75° |
| 2026-04-12 20:09 | 26.00178 | -80.21381 | 932 ft | 85 kts | 76° |
| 2026-04-12 20:09 | 26.00209 | -80.21105 | 912 ft | 88 kts | 75° |
| 2026-04-12 20:10 | 26.00244 | -80.20830 | 899 ft | 90 kts | 76° |
| 2026-04-12 20:10 | 26.00264 | -80.20572 | 912 ft | 89 kts | 78° |
| 2026-04-12 20:10 | 26.00271 | -80.20238 | 925 ft | 89 kts | 82° |
| 2026-04-12 20:10 | 26.00260 | -80.19832 | 941 ft | 89 kts | 82° |
| 2026-04-12 20:11 | 26.00249 | -80.19550 | 951 ft | 89 kts | 86° |
| 2026-04-12 20:11 | 26.00238 | -80.19312 | 849 ft | 98 kts | 84° |
| 2026-04-12 20:11 | 26.00249 | -80.18975 | 834 ft | 94 kts | 81° |
| 2026-04-12 20:11 | 26.00274 | -80.18598 | 885 ft | 89 kts | 78° |
| 2026-04-12 20:12 | 26.00294 | -80.18231 | 904 ft | 88 kts | 79° |
| 2026-04-12 20:12 | 26.00307 | -80.17942 | 931 ft | 87 kts | 79° |
| 2026-04-12 20:12 | 26.00326 | -80.17641 | 920 ft | 90 kts | 80° |
| 2026-04-12 20:12 | 26.00333 | -80.17197 | 970 ft | 87 kts | 80° |
| 2026-04-12 20:13 | 26.00353 | -80.16929 | 1003 ft | 85 kts | 74° |
| 2026-04-12 20:13 | 26.00367 | -80.16563 | 1002 ft | 90 kts | 82° |
| 2026-04-12 20:13 | 26.00388 | -80.15763 | 917 ft | 93 kts | 81° |
| 2026-04-12 20:14 | 26.00417 | -80.15377 | 876 ft | 93 kts | 79° |
| 2026-04-12 20:14 | 26.00466 | -80.14871 | 777 ft | 97 kts | 76° |
| 2026-04-12 20:14 | 26.00504 | -80.14500 | 765 ft | 93 kts | 78° |
| 2026-04-12 20:14 | 26.00522 | -80.14113 | 684 ft | 96 kts | 80° |
| 2026-04-12 20:15 | 26.00553 | -80.13631 | 599 ft | 95 kts | 78° |
| 2026-04-12 20:15 | 26.00595 | -80.13039 | 607 ft | 87 kts | 77° |
| 2026-04-12 20:15 | 26.00655 | -80.12544 | 498 ft | 90 kts | 75° |
| 2026-04-12 20:15 | 26.00739 | -80.12000 | 427 ft | 90 kts | 73° |
| 2026-04-12 20:16 | 26.01033 | -80.11628 | 448 ft | 82 kts | 29° |
| 2026-04-12 20:16 | 26.01400 | -80.11524 | 445 ft | 85 kts | 15° |
| 2026-04-12 20:16 | 26.01800 | -80.11462 | 465 ft | 83 kts | 13° |
| 2026-04-12 20:16 | 26.02240 | -80.11407 | 410 ft | 89 kts | 15° |
| 2026-04-12 20:17 | 26.02697 | -80.11359 | 393 ft | 89 kts | 12° |
| 2026-04-12 20:17 | 26.03161 | -80.11325 | 338 ft | 93 kts | 10° |
| 2026-04-12 20:17 | 26.03476 | -80.11314 | 325 ft | 93 kts | 8° |
| 2026-04-12 20:17 | 26.03682 | -80.11323 | 348 ft | 91 kts | 2° |
| 2026-04-12 20:18 | 26.04033 | -80.11286 | 466 ft | 77 kts | 22° |
| 2026-04-12 20:18 | 26.04440 | -80.11173 | 521 ft | 76 kts | 22° |
| 2026-04-12 20:18 | 26.04839 | -80.11107 | 441 ft | 89 kts | 10° |
| 2026-04-12 20:18 | 26.05254 | -80.11079 | 413 ft | 90 kts | 12° |
| 2026-04-12 20:19 | 26.05656 | -80.11030 | 405 ft | 87 kts | 13° |
| 2026-04-12 20:19 | 26.06072 | -80.10979 | 428 ft | 79 kts | 39° |
| 2026-04-12 20:19 | 26.06417 | -80.10706 | 409 ft | 81 kts | 36° |
| 2026-04-12 20:19 | 26.06834 | -80.10539 | 355 ft | 86 kts | 20° |
| 2026-04-12 20:20 | 26.07198 | -80.10440 | 347 ft | 86 kts | 24° |
| 2026-04-12 20:20 | 26.07494 | -80.10365 | 366 ft | 84 kts | 16° |
| 2026-04-12 20:20 | 26.07918 | -80.10184 | 284 ft | 84 kts | 34° |
| 2026-04-12 20:20 | 26.08308 | -80.09891 | 328 ft | 80 kts | 33° |
| 2026-04-12 20:21 | 26.08679 | -80.09739 | 344 ft | 82 kts | 24° |
| 2026-04-12 20:21 | 26.08891 | -80.09682 | 339 ft | 85 kts | 18° |
| 2026-04-12 20:21 | 26.09283 | -80.09627 | 333 ft | 87 kts | 14° |
| 2026-04-12 20:21 | 26.09452 | -80.09597 | 317 ft | 88 kts | 17° |
| 2026-04-12 20:22 | 26.09881 | -80.09515 | 330 ft | 85 kts | 19° |
| 2026-04-12 20:22 | 26.10128 | -80.09446 | 380 ft | 79 kts | 24° |
| 2026-04-12 20:22 | 26.10552 | -80.09436 | 380 ft | 85 kts | 13° |
| 2026-04-12 20:22 | 26.11049 | -80.09404 | 365 ft | 86 kts | 15° |
| 2026-04-12 20:23 | 26.11497 | -80.09343 | 313 ft | 89 kts | 16° |
| 2026-04-12 20:23 | 26.11962 | -80.09273 | 248 ft | 92 kts | 13° |
| 2026-04-12 20:23 | 26.12473 | -80.09244 | 309 ft | 86 kts | 12° |
| 2026-04-12 20:23 | 26.12883 | -80.09236 | 327 ft | 84 kts | 9° |
| 2026-04-12 20:24 | 26.13138 | -80.09225 | 299 ft | 87 kts | 11° |
| 2026-04-12 20:24 | 26.13590 | -80.09211 | 345 ft | 84 kts | 6° |
| 2026-04-12 20:24 | 26.14025 | -80.09183 | 364 ft | 81 kts | 22° |
| 2026-04-12 20:24 | 26.14347 | -80.09063 | 415 ft | 77 kts | 25° |
| 2026-04-12 20:25 | 26.14568 | -80.08974 | 495 ft | 70 kts | 28° |
| 2026-04-12 20:25 | 26.14900 | -80.08910 | 499 ft | 78 kts | 9° |
| 2026-04-12 20:25 | 26.15385 | -80.08894 | 386 ft | 89 kts | 13° |
| 2026-04-12 20:25 | 26.15933 | -80.08897 | 263 ft | 95 kts | 7° |
| 2026-04-12 20:26 | 26.16386 | -80.08998 | 310 ft | 97 kts | 334° |
| 2026-04-12 20:26 | 26.16504 | -80.09417 | 326 ft | 103 kts | 254° |
| 2026-04-12 20:26 | 26.16223 | -80.09669 | 310 ft | 93 kts | 188° |
| 2026-04-12 20:26 | 26.15907 | -80.09794 | 324 ft | 92 kts | 191° |
| 2026-04-12 20:27 | 26.15607 | -80.09895 | 294 ft | 95 kts | 185° |
| 2026-04-12 20:27 | 26.15190 | -80.09930 | 307 ft | 91 kts | 172° |
| 2026-04-12 20:27 | 26.14885 | -80.09940 | 304 ft | 90 kts | 171° |
| 2026-04-12 20:27 | 26.14442 | -80.09946 | 334 ft | 87 kts | 170° |
| 2026-04-12 20:28 | 26.14032 | -80.09968 | 356 ft | 88 kts | 178° |
| 2026-04-12 20:28 | 26.13645 | -80.09965 | 391 ft | 83 kts | 163° |
| 2026-04-12 20:28 | 26.13244 | -80.09998 | 370 ft | 93 kts | 179° |
| 2026-04-12 20:28 | 26.12860 | -80.10063 | 383 ft | 92 kts | 178° |
| 2026-04-12 20:29 | 26.12513 | -80.10120 | 355 ft | 97 kts | 182° |
| 2026-04-12 20:29 | 26.12034 | -80.10218 | 358 ft | 96 kts | 175° |
| 2026-04-12 20:29 | 26.11583 | -80.10265 | 402 ft | 93 kts | 174° |
| 2026-04-12 20:29 | 26.11291 | -80.10255 | 318 ft | 99 kts | 158° |
| 2026-04-12 20:30 | 26.10949 | -80.10165 | 315 ft | 99 kts | 170° |
| 2026-04-12 20:30 | 26.10645 | -80.10177 | 371 ft | 94 kts | 174° |
| 2026-04-12 20:30 | 26.10368 | -80.10205 | 349 ft | 100 kts | 179° |
| 2026-04-12 20:30 | 26.10065 | -80.10298 | 285 ft | 111 kts | 197° |
| 2026-04-12 20:31 | 26.09830 | -80.10447 | 277 ft | 112 kts | 212° |